Time;durP1;ratioP1;P1;durP2;ratioP2;P2;SDS_P1;SDS_P2;PMS_P1;PMS_P2;Temp;Humidity;BMP_temperature;BMP_pressure;BME280_temperature;BME280_humidity;BME280_pressure;Samples;Min_cycle;Max_cycle;Signal;HPM_P1;HPM_P2
2022/08/05 00:01:17;;;;;;;25.15;18.23;;;25.10;68.70;;;;;;5094230;28;20528;-82
2022/08/05 00:03:43;;;;;;;24.05;18.13;;;25.00;68.40;;;;;;5077152;28;20070;-86
2022/08/05 00:06:10;;;;;;;22.30;17.45;;;25.00;68.60;;;;;;5060360;28;20081;-84
2022/08/05 00:08:37;;;;;;;23.17;18.63;;;25.00;68.70;;;;;;5060983;28;20031;-83
2022/08/05 00:11:09;;;;;;;31.85;19.58;;;25.00;68.80;;;;;;5078521;28;20577;-89
2022/08/05 00:13:36;;;;;;;22.52;17.70;;;24.90;68.80;;;;;;5078050;28;20521;-85
2022/08/05 00:16:03;;;;;;;21.25;18.25;;;24.90;69.20;;;;;;5060131;28;20032;-83
2022/08/05 00:18:29;;;;;;;24.52;18.70;;;24.90;69.30;;;;;;5092482;28;20134;-84
2022/08/05 00:20:55;;;;;;;24.83;18.90;;;24.90;69.20;;;;;;5094494;28;20567;-84
2022/08/05 00:23:22;;;;;;;22.80;18.10;;;24.90;69.20;;;;;;5076901;28;20059;-83
2022/08/05 00:25:49;;;;;;;25.92;18.65;;;24.90;69.30;;;;;;5059469;28;20456;-82
2022/08/05 00:28:15;;;;;;;21.90;18.42;;;24.90;69.40;;;;;;5077136;28;20070;-82
2022/08/05 00:30:41;;;;;;;25.55;19.25;;;24.80;69.70;;;;;;5076550;28;20632;-84
2022/08/05 00:33:08;;;;;;;25.05;17.90;;;24.80;69.60;;;;;;5075955;28;20028;-83
2022/08/05 00:35:34;;;;;;;21.30;18.65;;;24.80;70.00;;;;;;5094156;28;20047;-82
2022/08/05 00:38:00;;;;;;;26.85;19.23;;;24.80;69.90;;;;;;5045566;28;20033;-83
2022/08/05 00:40:27;;;;;;;25.90;20.25;;;24.70;70.10;;;;;;5039023;28;20035;-83
2022/08/05 00:42:53;;;;;;;22.63;19.15;;;24.70;69.90;;;;;;5067016;28;20074;-83
2022/08/05 00:45:19;;;;;;;26.52;19.88;;;24.70;69.90;;;;;;5074482;28;20498;-83
2022/08/05 00:47:45;;;;;;;24.45;18.88;;;24.60;69.90;;;;;;5072300;28;20028;-79
2022/08/05 00:50:11;;;;;;;27.23;19.13;;;24.60;69.90;;;;;;5060897;28;20028;-84
2022/08/05 00:52:38;;;;;;;24.45;18.88;;;24.60;70.10;;;;;;5078815;28;20036;-83
2022/08/05 00:55:04;;;;;;;25.77;20.05;;;24.60;70.70;;;;;;5059774;28;20090;-84
2022/08/05 00:57:30;;;;;;;26.38;19.23;;;24.40;70.40;;;;;;5077909;28;20058;-84
2022/08/05 00:59:56;;;;;;;24.77;19.15;;;24.50;70.50;;;;;;5061365;28;20060;-83
2022/08/05 01:02:22;;;;;;;23.23;19.70;;;24.50;70.70;;;;;;5113194;27;20509;-82
2022/08/05 01:04:47;;;;;;;27.10;18.92;;;24.40;70.80;;;;;;5094230;28;20032;-84
2022/08/05 01:07:14;;;;;;;25.08;19.35;;;24.40;71.40;;;;;;5077271;28;20101;-83
2022/08/05 01:09:40;;;;;;;24.63;19.67;;;24.40;71.30;;;;;;5040674;28;20067;-83
2022/08/05 01:12:10;;;;;;;26.65;19.40;;;24.40;71.30;;;;;;5075140;28;20044;-84
2022/08/05 01:14:57;;;;;;;25.45;18.52;;;24.40;71.20;;;;;;5095054;28;20684;-84
2022/08/05 01:17:34;;;;;;;24.40;19.90;;;24.40;71.20;;;;;;5093306;28;20024;-84
2022/08/05 01:20:24;;;;;;;26.38;20.23;;;24.30;71.20;;;;;;5043358;28;20529;-84
2022/08/05 01:22:56;;;;;;;24.55;20.08;;;24.20;71.20;;;;;;5093415;28;20043;-83
2022/08/05 01:25:48;;;;;;;23.92;19.77;;;24.20;71.20;;;;;;5093652;28;20032;-84
2022/08/05 01:28:22;;;;;;;22.70;19.67;;;24.20;72.10;;;;;;5076347;28;20038;-83
2022/08/05 01:31:08;;;;;;;26.73;20.40;;;24.20;71.90;;;;;;5080124;28;20029;-82
2022/08/05 01:33:42;;;;;;;26.05;20.08;;;24.10;71.80;;;;;;5100570;27;20494;-81
2022/08/05 01:36:14;;;;;;;29.27;19.70;;;24.00;72.20;;;;;;5072906;28;20032;-82
2022/08/05 01:38:41;;;;;;;24.25;19.67;;;24.00;72.00;;;;;;5086649;28;20027;-82
2022/08/05 01:41:09;;;;;;;29.35;20.25;;;24.00;71.90;;;;;;5082935;28;20036;-82
2022/08/05 01:43:37;;;;;;;29.20;20.67;;;24.00;72.50;;;;;;5081805;28;20457;-82
2022/08/05 01:46:04;;;;;;;24.00;19.73;;;24.00;71.90;;;;;;5076916;28;20048;-82
2022/08/05 01:48:33;;;;;;;23.88;19.98;;;23.90;71.80;;;;;;5076698;28;20032;-83
2022/08/05 01:51:01;;;;;;;27.23;20.98;;;23.90;71.90;;;;;;5076223;28;20067;-84
2022/08/05 01:53:28;;;;;;;28.77;20.48;;;23.90;72.00;;;;;;5079062;28;20044;-83
2022/08/05 01:55:58;;;;;;;23.55;20.63;;;23.90;72.10;;;;;;5040558;28;20060;-80
2022/08/05 01:58:26;;;;;;;27.02;20.17;;;23.90;72.20;;;;;;5076443;28;20537;-82
2022/08/05 02:00:56;;;;;;;28.92;21.42;;;23.90;72.30;;;;;;5075900;28;20043;-83
2022/08/05 02:03:27;;;;;;;27.40;21.42;;;23.80;72.30;;;;;;5081224;28;20044;-82
2022/08/05 02:05:54;;;;;;;25.75;21.33;;;23.80;72.40;;;;;;5076177;28;20531;-83
2022/08/05 02:08:20;;;;;;;28.17;21.67;;;23.80;72.40;;;;;;5110549;27;20482;-83
2022/08/05 02:10:56;;;;;;;28.98;21.05;;;23.80;72.50;;;;;;5108996;27;20060;-82
2022/08/05 02:13:31;;;;;;;29.23;20.50;;;23.80;72.70;;;;;;5075008;28;20039;-82
2022/08/05 02:16:19;;;;;;;28.33;21.15;;;23.80;72.80;;;;;;5057215;28;20090;-82
2022/08/05 02:19:00;;;;;;;23.95;20.50;;;23.80;72.70;;;;;;5093418;28;20036;-82
2022/08/05 02:21:33;;;;;;;26.35;20.75;;;23.80;72.90;;;;;;5075690;28;20507;-81
2022/08/05 02:24:06;;;;;;;27.42;21.45;;;23.70;73.10;;;;;;5076465;28;20042;-83
2022/08/05 02:26:46;;;;;;;24.52;21.65;;;23.70;73.30;;;;;;5108995;27;20718;-83
2022/08/05 02:29:17;;;;;;;28.70;21.27;;;23.80;73.40;;;;;;5092393;28;20494;-84
2022/08/05 02:31:45;;;;;;;26.13;21.13;;;23.80;73.50;;;;;;5074715;28;20032;-83
2022/08/05 02:34:12;;;;;;;28.65;22.30;;;23.70;73.60;;;;;;5074565;28;20512;-83
2022/08/05 02:36:47;;;;;;;29.50;20.75;;;23.70;73.70;;;;;;5076196;28;20043;-82
2022/08/05 02:39:17;;;;;;;29.60;21.48;;;23.80;73.60;;;;;;5085790;28;20051;-81
2022/08/05 02:41:47;;;;;;;23.42;20.77;;;23.80;73.70;;;;;;5074410;28;20036;-83
2022/08/05 02:44:13;;;;;;;29.35;20.40;;;23.80;73.50;;;;;;5076251;28;20480;-82
2022/08/05 02:46:42;;;;;;;32.88;22.25;;;23.80;73.40;;;;;;5063219;28;20032;-82
2022/08/05 02:49:09;;;;;;;32.10;21.70;;;23.80;73.40;;;;;;5091011;28;20031;-82
2022/08/05 02:51:37;;;;;;;29.25;21.67;;;23.80;73.60;;;;;;5073952;28;20495;-81
2022/08/05 02:54:05;;;;;;;30.83;23.17;;;23.90;73.40;;;;;;5077170;28;20032;-81
2022/08/05 02:56:33;;;;;;;35.28;23.88;;;23.80;73.50;;;;;;5075831;28;20036;-83
2022/08/05 02:59:00;;;;;;;29.25;21.85;;;23.80;73.50;;;;;;5108526;27;20185;-83
2022/08/05 03:01:27;;;;;;;32.67;22.48;;;23.80;73.40;;;;;;5074554;28;20058;-82
2022/08/05 03:03:57;;;;;;;30.45;22.13;;;23.90;73.40;;;;;;5075345;28;20031;-81
2022/08/05 03:06:23;;;;;;;33.50;23.10;;;24.00;72.90;;;;;;5076044;28;20032;-84
2022/08/05 03:08:51;;;;;;;34.25;23.65;;;24.00;72.90;;;;;;5076017;28;20043;-84
2022/08/05 03:11:22;;;;;;;31.55;22.02;;;24.00;73.00;;;;;;5108944;27;20722;-85
2022/08/05 03:13:49;;;;;;;28.65;22.23;;;24.10;73.00;;;;;;5064650;28;20063;-83
2022/08/05 03:16:15;;;;;;;27.90;22.30;;;24.10;72.80;;;;;;5067189;28;21000;-85
2022/08/05 03:18:41;;;;;;;32.67;21.70;;;24.10;72.70;;;;;;5077733;28;20033;-87
2022/08/05 03:21:08;;;;;;;31.73;22.48;;;24.20;72.60;;;;;;5086176;28;21081;-87
2022/08/05 03:23:35;;;;;;;30.40;21.85;;;24.20;72.30;;;;;;5059160;28;20039;-90
2022/08/05 03:26:03;;;;;;;31.85;23.63;;;24.20;72.50;;;;;;5098305;27;20563;-92
2022/08/05 03:28:30;;;;;;;30.63;23.67;;;24.10;72.70;;;;;;5110057;27;20075;-91
2022/08/05 03:30:58;;;;;;;31.50;23.05;;;24.10;72.70;;;;;;5094399;28;20041;-85
2022/08/05 03:33:26;;;;;;;30.10;22.13;;;24.20;72.90;;;;;;5050777;28;20032;-89
2022/08/05 03:35:55;;;;;;;29.25;23.23;;;24.20;72.80;;;;;;5046054;28;20040;-93
2022/08/05 03:38:21;;;;;;;29.40;22.08;;;24.20;72.30;;;;;;5060921;28;20028;-84
2022/08/05 03:40:47;;;;;;;34.00;23.30;;;24.20;72.70;;;;;;5048430;28;20063;-85
2022/08/05 03:43:14;;;;;;;32.72;23.85;;;24.20;72.80;;;;;;5061005;28;20059;-83
2022/08/05 03:45:40;;;;;;;31.85;23.73;;;24.10;72.90;;;;;;5061811;28;20040;-84
2022/08/05 03:48:06;;;;;;;33.20;23.30;;;24.10;72.90;;;;;;5059389;28;20122;-83
2022/08/05 03:50:44;;;;;;;31.90;22.05;;;24.20;73.00;;;;;;5062056;28;20149;-83
2022/08/05 03:53:14;;;;;;;26.38;21.50;;;24.20;72.70;;;;;;5081953;28;20024;-83
2022/08/05 03:55:49;;;;;;;32.75;24.08;;;24.10;72.80;;;;;;5050422;28;20573;-84
2022/08/05 03:58:16;;;;;;;;;;;24.10;73.00;;;;;;5061758;28;20166;-83
2022/08/05 04:00:44;;;;;;;26.95;21.67;;;24.10;73.20;;;;;;5049455;28;20347;-83
2022/08/05 04:03:13;;;;;;;31.77;21.02;;;24.10;72.80;;;;;;5043842;28;20044;-84
2022/08/05 04:05:41;;;;;;;28.65;21.17;;;24.10;73.10;;;;;;5032121;28;20039;-83
2022/08/05 04:08:09;;;;;;;26.67;20.65;;;24.20;73.00;;;;;;5038630;28;20044;-94
2022/08/05 04:10:36;;;;;;;30.05;20.98;;;24.20;72.90;;;;;;5082156;28;20047;-85
2022/08/05 04:13:02;;;;;;;28.27;19.45;;;24.20;73.20;;;;;;5042688;28;20067;-84
2022/08/05 04:15:29;;;;;;;25.60;19.95;;;24.20;73.10;;;;;;5079720;28;20036;-84
2022/08/05 04:17:55;;;;;;;22.95;17.45;;;24.20;73.30;;;;;;5028822;28;20050;-83
2022/08/05 04:20:22;;;;;;;23.73;19.08;;;24.20;73.00;;;;;;5051022;28;20032;-84
2022/08/05 04:22:49;;;;;;;22.63;17.73;;;24.20;72.80;;;;;;5045002;28;20040;-81
2022/08/05 04:25:15;;;;;;;25.73;18.50;;;24.20;72.50;;;;;;5064042;28;20039;-81
2022/08/05 04:27:41;;;;;;;21.65;16.75;;;24.20;72.50;;;;;;5081836;28;20039;-81
2022/08/05 04:30:08;;;;;;;29.27;19.15;;;24.20;72.50;;;;;;5051315;28;20507;-81
2022/08/05 04:32:34;;;;;;;25.58;18.55;;;24.30;72.60;;;;;;5031703;28;20039;-82
2022/08/05 04:35:00;;;;;;;25.52;18.23;;;24.30;72.50;;;;;;5063671;28;20115;-83
2022/08/05 04:37:26;;;;;;;21.10;17.48;;;24.30;72.50;;;;;;5046725;28;20119;-82
2022/08/05 04:39:52;;;;;;;24.95;18.15;;;24.30;72.50;;;;;;5055490;28;20099;-84
2022/08/05 04:42:18;;;;;;;24.50;18.17;;;24.30;72.70;;;;;;5090691;28;20059;-85
2022/08/05 04:44:44;;;;;;;22.92;17.42;;;24.30;72.70;;;;;;5068077;28;20028;-86
2022/08/05 04:47:10;;;;;;;24.55;17.75;;;24.30;73.40;;;;;;5061567;28;20040;-87
2022/08/05 04:49:38;;;;;;;24.30;18.13;;;24.30;72.60;;;;;;5078635;28;20502;-82
2022/08/05 04:52:05;;;;;;;23.98;17.33;;;24.30;72.50;;;;;;5044174;28;20454;-83
2022/08/05 04:54:31;;;;;;;21.73;17.55;;;24.30;72.80;;;;;;5049333;28;20024;-82
2022/08/05 04:56:56;;;;;;;20.95;17.63;;;24.30;72.40;;;;;;5030295;28;20548;-82
2022/08/05 04:59:22;;;;;;;26.95;17.50;;;24.40;72.60;;;;;;5048870;28;20048;-83
2022/08/05 05:01:49;;;;;;;26.40;17.50;;;24.40;72.60;;;;;;5048324;28;20044;-83
2022/08/05 05:04:15;;;;;;;25.23;18.23;;;24.40;72.90;;;;;;5081966;28;20033;-83
2022/08/05 05:06:41;;;;;;;26.48;17.50;;;24.40;72.70;;;;;;5066985;28;20033;-83
2022/08/05 05:09:08;;;;;;;22.05;17.23;;;24.40;72.70;;;;;;5078755;27;20032;-84
2022/08/05 05:11:34;;;;;;;25.52;17.58;;;24.40;72.90;;;;;;5076435;28;20138;-83
2022/08/05 05:14:02;;;;;;;22.27;16.58;;;24.40;72.80;;;;;;5078388;28;20123;-83
2022/08/05 05:16:29;;;;;;;19.95;15.70;;;24.50;72.70;;;;;;5053122;28;20032;-83
2022/08/05 05:18:55;;;;;;;23.52;16.52;;;24.50;72.40;;;;;;5066739;28;20123;-83
2022/08/05 05:21:20;;;;;;;23.90;17.70;;;24.60;72.30;;;;;;5110089;27;20181;-83
2022/08/05 05:23:46;;;;;;;18.90;15.57;;;24.60;72.30;;;;;;5077879;27;20119;-82
2022/08/05 05:26:12;;;;;;;20.00;15.85;;;24.70;72.30;;;;;;5060492;28;20379;-83
2022/08/05 05:28:38;;;;;;;21.67;16.52;;;24.80;72.10;;;;;;5076770;28;20032;-84
2022/08/05 05:31:04;;;;;;;21.63;16.48;;;24.80;71.90;;;;;;5110410;27;20059;-82
2022/08/05 05:33:30;;;;;;;19.15;15.25;;;24.90;71.40;;;;;;5075984;28;20066;-82
2022/08/05 05:35:56;;;;;;;25.05;16.50;;;24.90;70.70;;;;;;5076636;27;20116;-82
2022/08/05 05:38:22;;;;;;;21.35;16.55;;;25.00;70.70;;;;;;5076442;28;20512;-83
2022/08/05 05:40:48;;;;;;;22.30;16.48;;;25.00;70.60;;;;;;5058162;28;20033;-83
2022/08/05 05:43:14;;;;;;;21.98;15.70;;;25.10;70.50;;;;;;5059023;28;20120;-84
2022/08/05 05:45:40;;;;;;;18.73;15.45;;;25.10;70.20;;;;;;5035315;28;20074;-83
2022/08/05 05:48:06;;;;;;;19.38;15.52;;;25.30;70.20;;;;;;5059080;27;20175;-81
2022/08/05 05:50:34;;;;;;;23.35;16.02;;;25.40;70.20;;;;;;5076851;28;20036;-83
2022/08/05 05:53:00;;;;;;;21.73;15.55;;;25.50;69.70;;;;;;5076212;28;20029;-82
2022/08/05 05:55:26;;;;;;;22.13;15.88;;;25.60;69.60;;;;;;5076732;28;20032;-84
2022/08/05 05:57:52;;;;;;;16.27;14.23;;;25.70;69.10;;;;;;5075419;28;20111;-83
2022/08/05 06:00:21;;;;;;;20.55;15.43;;;25.70;69.10;;;;;;5042162;28;20077;-83
2022/08/05 06:02:47;;;;;;;20.77;14.85;;;25.80;68.80;;;;;;5074108;28;20052;-83
2022/08/05 06:05:14;;;;;;;24.52;15.80;;;25.90;69.20;;;;;;5077387;28;20444;-83
2022/08/05 06:07:41;;;;;;;20.13;14.95;;;26.00;68.40;;;;;;5053220;28;20551;-82
2022/08/05 06:10:09;;;;;;;19.77;15.75;;;26.00;68.30;;;;;;5074064;28;20043;-83
2022/08/05 06:12:36;;;;;;;18.63;15.07;;;26.00;68.20;;;;;;5058354;28;20502;-83
2022/08/05 06:15:03;;;;;;;21.38;15.93;;;26.10;68.10;;;;;;5041421;28;20029;-83
2022/08/05 06:17:32;;;;;;;17.55;15.32;;;26.20;68.10;;;;;;5074864;28;20499;-83
2022/08/05 06:19:58;;;;;;;23.63;15.98;;;26.20;67.90;;;;;;5076518;28;20505;-83
2022/08/05 06:22:26;;;;;;;19.77;14.68;;;26.20;68.30;;;;;;5074791;28;20123;-83
2022/08/05 06:24:52;;;;;;;27.27;15.63;;;26.30;67.70;;;;;;5092600;28;20024;-84
2022/08/05 06:27:18;;;;;;;20.25;14.38;;;26.40;67.30;;;;;;5057149;28;20032;-83
2022/08/05 06:29:44;;;;;;;20.98;14.27;;;26.60;67.20;;;;;;5059558;28;20035;-84
2022/08/05 06:32:11;;;;;;;22.63;14.18;;;26.70;66.80;;;;;;5061265;28;20044;-82
2022/08/05 06:34:37;;;;;;;19.65;13.05;;;26.80;66.60;;;;;;5063434;28;20059;-83
2022/08/05 06:37:03;;;;;;;17.95;13.05;;;27.00;66.00;;;;;;5062364;28;20062;-83
2022/08/05 06:39:29;;;;;;;14.60;12.35;;;27.30;64.90;;;;;;5035530;28;20109;-83
2022/08/05 06:41:56;;;;;;;21.13;13.43;;;27.50;64.50;;;;;;5057163;28;20565;-85
2022/08/05 06:44:23;;;;;;;18.15;12.90;;;27.60;64.30;;;;;;5040350;28;20116;-86
2022/08/05 06:46:49;;;;;;;16.70;12.93;;;27.70;64.30;;;;;;5023091;28;20927;-83
2022/08/05 06:49:15;;;;;;;13.77;12.20;;;27.90;64.10;;;;;;5047347;28;20115;-84
2022/08/05 06:51:41;;;;;;;19.20;12.05;;;28.00;64.20;;;;;;5057259;28;20040;-84
2022/08/05 06:54:07;;;;;;;16.45;11.40;;;28.20;64.60;;;;;;5061435;28;20047;-86
2022/08/05 06:56:33;;;;;;;16.42;12.25;;;28.20;63.00;;;;;;5075736;28;20044;-79
2022/08/05 06:58:59;;;;;;;17.10;12.20;;;28.30;62.70;;;;;;5075427;28;20036;-80
2022/08/05 07:01:25;;;;;;;15.32;10.75;;;28.40;62.50;;;;;;5075142;28;20055;-79
2022/08/05 07:03:51;;;;;;;15.65;11.25;;;28.40;61.30;;;;;;5074375;28;20422;-76
2022/08/05 07:06:16;;;;;;;25.20;11.63;;;28.40;62.40;;;;;;5056524;28;20028;-79
2022/08/05 07:08:43;;;;;;;20.02;10.43;;;28.50;62.20;;;;;;5057973;28;20032;-79
2022/08/05 07:11:10;;;;;;;13.68;8.45;;;28.60;60.80;;;;;;5058149;28;20694;-79
2022/08/05 07:19:05;;;;;;;12.70;7.80;;;28.70;60.00;;;;;;5075339;28;20652;-82
2022/08/05 07:21:34;;;;;;;13.13;7.72;;;28.80;58.40;;;;;;5040394;28;20094;-78
2022/08/05 07:23:59;;;;;;;11.10;8.48;;;28.80;58.40;;;;;;5075329;28;20039;-82
2022/08/05 07:26:25;;;;;;;12.35;7.78;;;28.80;58.50;;;;;;5056392;28;20036;-82
2022/08/05 07:28:51;;;;;;;11.63;7.78;;;28.70;58.40;;;;;;5064993;28;20089;-81
2022/08/05 07:31:17;;;;;;;13.63;7.75;;;28.80;58.50;;;;;;5091319;28;20031;-80
2022/08/05 07:33:43;;;;;;;12.90;7.55;;;28.70;58.80;;;;;;5065965;28;20029;-84
2022/08/05 07:36:10;;;;;;;12.90;7.60;;;28.80;58.60;;;;;;5107091;28;20578;-84
2022/08/05 07:38:37;;;;;;;10.75;8.05;;;28.90;58.00;;;;;;5060846;28;20393;-82
2022/08/05 07:41:07;;;;;;;14.73;8.50;;;28.80;58.10;;;;;;5057578;28;20067;-84
2022/08/05 07:43:33;;;;;;;11.20;8.07;;;28.90;60.50;;;;;;5082598;28;20090;-84
2022/08/05 07:45:59;;;;;;;11.20;7.55;;;28.90;60.30;;;;;;5091273;28;20051;-84
2022/08/05 07:48:25;;;;;;;13.25;7.88;;;28.80;59.80;;;;;;5031246;28;20478;-85
2022/08/05 07:50:51;;;;;;;11.57;7.32;;;28.90;60.20;;;;;;5045039;28;20387;-82
2022/08/05 07:53:17;;;;;;;11.93;7.18;;;28.90;58.10;;;;;;5066373;28;20034;-81
2022/08/05 07:55:43;;;;;;;9.35;7.20;;;28.90;57.50;;;;;;5072362;28;20533;-80
2022/08/05 07:58:09;;;;;;;9.57;6.65;;;28.90;57.60;;;;;;5066318;28;20048;-84
2022/08/05 08:00:35;;;;;;;12.05;6.45;;;28.90;57.10;;;;;;5052182;28;20143;-84
2022/08/05 08:03:01;;;;;;;13.35;6.90;;;28.80;57.10;;;;;;5040270;28;20052;-84
2022/08/05 08:05:28;;;;;;;12.20;6.50;;;28.80;57.00;;;;;;5086576;28;20043;-82
2022/08/05 08:07:54;;;;;;;7.03;6.32;;;28.80;57.40;;;;;;5052509;28;20040;-82
2022/08/05 08:10:21;;;;;;;6.82;6.00;;;28.80;57.30;;;;;;5069396;28;20048;-84
2022/08/05 08:12:48;;;;;;;8.98;6.40;;;28.90;56.80;;;;;;5041542;28;20028;-83
2022/08/05 08:15:14;;;;;;;9.63;6.50;;;28.80;57.80;;;;;;5042632;28;20115;-83
2022/08/05 08:17:40;;;;;;;7.13;6.32;;;28.80;58.10;;;;;;5052764;28;20070;-84
2022/08/05 08:20:07;;;;;;;8.00;6.18;;;28.80;56.00;;;;;;5036104;28;20076;-84
2022/08/05 08:22:33;;;;;;;7.68;6.18;;;28.80;58.10;;;;;;5040141;28;20037;-85
2022/08/05 08:24:59;;;;;;;7.47;6.78;;;28.80;56.30;;;;;;5105157;28;20553;-84
2022/08/05 08:27:25;;;;;;;7.40;6.25;;;28.80;56.00;;;;;;5035248;28;20032;-84
2022/08/05 08:29:51;;;;;;;9.13;6.28;;;28.80;57.30;;;;;;5070868;28;20562;-86
2022/08/05 08:32:17;;;;;;;8.70;6.50;;;28.80;55.90;;;;;;5055862;28;20533;-79
2022/08/05 08:34:43;;;;;;;8.80;6.32;;;28.90;57.50;;;;;;5079554;28;20036;-79
2022/08/05 08:37:09;;;;;;;8.57;6.88;;;28.80;55.80;;;;;;5084519;28;20055;-80
2022/08/05 08:39:35;;;;;;;7.97;6.70;;;28.80;58.50;;;;;;5071646;28;20036;-79
2022/08/05 08:42:01;;;;;;;7.18;6.20;;;28.90;55.50;;;;;;5039777;28;20059;-79
2022/08/05 08:44:31;;;;;;;9.00;6.20;;;28.90;56.30;;;;;;5031636;28;20051;-81
2022/08/05 08:46:58;;;;;;;11.68;6.40;;;28.80;55.90;;;;;;5032975;28;20033;-82
2022/08/05 08:49:26;;;;;;;8.40;6.63;;;28.80;57.60;;;;;;5035925;28;20059;-82
2022/08/05 08:52:16;;;;;;;7.03;6.13;;;28.90;54.60;;;;;;5061158;28;20041;-82
2022/08/05 08:54:43;;;;;;;11.77;6.70;;;28.90;54.20;;;;;;5077225;28;20449;-81
2022/08/05 08:57:10;;;;;;;8.95;6.60;;;28.80;56.10;;;;;;5076177;28;20086;-84
2022/08/05 08:59:37;;;;;;;27.63;7.78;;;28.80;54.90;;;;;;5067674;28;20064;-81
2022/08/05 09:02:05;;;;;;;17.63;7.28;;;28.90;59.70;;;;;;5028305;28;20135;-84
2022/08/05 09:04:36;;;;;;;11.13;6.82;;;28.90;57.90;;;;;;5036916;28;20036;-86
2022/08/05 09:07:05;;;;;;;12.27;6.70;;;28.90;56.30;;;;;;5059443;28;20467;-85
2022/08/05 09:09:35;;;;;;;7.10;6.40;;;28.90;55.40;;;;;;5056025;28;20830;-83
2022/08/05 09:12:03;;;;;;;7.38;6.57;;;28.80;52.90;;;;;;5065088;28;20046;-78
2022/08/05 09:14:31;;;;;;;10.82;7.65;;;28.80;53.20;;;;;;5077063;28;20036;-81
2022/08/05 09:17:03;;;;;;;9.27;6.30;;;28.80;54.50;;;;;;5059891;28;20043;-80
2022/08/05 09:19:28;;;;;;;11.30;7.22;;;28.80;55.10;;;;;;5078089;28;20028;-82
2022/08/05 09:21:54;;;;;;;7.28;6.57;;;28.80;53.40;;;;;;5041852;28;20097;-80
2022/08/05 09:24:21;;;;;;;9.05;7.20;;;28.80;53.40;;;;;;5043698;28;20039;-78
2022/08/05 09:26:50;;;;;;;8.13;6.93;;;28.80;54.10;;;;;;5042088;28;20028;-77
2022/08/05 09:29:16;;;;;;;12.18;6.97;;;28.80;54.10;;;;;;5057588;28;20032;-77
2022/08/05 09:31:43;;;;;;;11.73;7.47;;;28.80;54.20;;;;;;5059579;28;20033;-78
2022/08/05 09:34:10;;;;;;;8.23;7.43;;;28.80;55.60;;;;;;5061828;28;20040;-78
2022/08/05 09:36:42;;;;;;;7.70;6.72;;;28.80;55.30;;;;;;5047388;28;20055;-78
2022/08/05 09:39:11;;;;;;;11.75;6.65;;;28.80;55.00;;;;;;5063109;28;20064;-78
2022/08/05 09:41:57;;;;;;;8.77;7.28;;;28.80;55.60;;;;;;5075398;28;20410;-78
2022/08/05 09:44:39;;;;;;;9.98;7.50;;;28.80;55.60;;;;;;5073938;28;20570;-77
2022/08/05 09:47:20;;;;;;;8.02;7.05;;;28.80;55.00;;;;;;5056563;28;20043;-79
2022/08/05 09:49:47;;;;;;;8.05;7.30;;;28.90;55.30;;;;;;5057792;28;20040;-78
2022/08/05 09:52:28;;;;;;;9.38;7.78;;;28.80;54.50;;;;;;5057743;28;20040;-76
2022/08/05 09:54:53;;;;;;;9.65;7.70;;;28.80;54.10;;;;;;5076347;28;20047;-76
2022/08/05 09:57:33;;;;;;;9.05;8.02;;;28.80;53.20;;;;;;5073290;28;20041;-77
2022/08/05 10:00:12;;;;;;;9.02;8.13;;;28.90;54.20;;;;;;5057120;28;20115;-77
2022/08/05 10:02:41;;;;;;;8.93;7.70;;;28.80;54.50;;;;;;5059872;28;20429;-78
2022/08/05 10:05:10;;;;;;;8.60;7.88;;;28.80;55.60;;;;;;5077034;27;20059;-78
2022/08/05 10:07:54;;;;;;;8.50;7.68;;;28.90;55.50;;;;;;5013808;28;20024;-77
2022/08/05 10:10:45;;;;;;;13.68;9.27;;;28.90;55.30;;;;;;5059222;28;20053;-78
2022/08/05 10:13:24;;;;;;;9.50;8.52;;;28.90;55.10;;;;;;5070642;28;20041;-78
2022/08/05 10:15:50;;;;;;;9.23;8.32;;;28.90;54.90;;;;;;5075200;28;20128;-84
2022/08/05 10:18:21;;;;;;;9.00;8.10;;;29.00;55.40;;;;;;5042703;28;20526;-83
2022/08/05 10:20:53;;;;;;;17.40;11.98;;;28.90;55.20;;;;;;5042617;28;20532;-78
2022/08/05 10:23:30;;;;;;;11.48;8.63;;;28.90;54.70;;;;;;5073042;28;20095;-80
2022/08/05 10:25:58;;;;;;;9.63;8.73;;;28.90;54.10;;;;;;5047911;28;20082;-80
2022/08/05 10:28:24;;;;;;;9.10;8.15;;;28.90;54.30;;;;;;5057683;28;20047;-80
2022/08/05 10:30:52;;;;;;;9.25;8.27;;;28.80;53.90;;;;;;5060048;28;20039;-81
2022/08/05 10:33:19;;;;;;;9.38;8.23;;;28.80;54.10;;;;;;5091096;28;20036;-78
2022/08/05 10:35:45;;;;;;;9.73;8.13;;;28.80;53.10;;;;;;5077585;28;20052;-79
2022/08/05 10:38:12;;;;;;;9.18;8.20;;;28.90;53.70;;;;;;5062672;28;20657;-78
2022/08/05 10:40:50;;;;;;;9.35;8.05;;;28.80;54.30;;;;;;5046749;28;20038;-79
2022/08/05 10:43:34;;;;;;;8.35;7.43;;;28.90;54.00;;;;;;5057119;28;20040;-78
2022/08/05 10:46:03;;;;;;;8.38;7.43;;;28.90;54.20;;;;;;5075340;28;20076;-79
2022/08/05 10:48:31;;;;;;;9.90;8.35;;;28.90;54.70;;;;;;5074538;28;20036;-79
2022/08/05 10:51:03;;;;;;;14.50;12.40;;;28.90;54.50;;;;;;5055889;28;20035;-80
2022/08/05 10:53:51;;;;;;;22.60;19.88;;;28.90;54.90;;;;;;5075568;28;20024;-79
2022/08/05 10:56:20;;;;;;;40.08;36.10;;;28.90;54.00;;;;;;5076463;28;20036;-79
2022/08/05 10:59:03;;;;;;;36.40;32.10;;;28.90;54.00;;;;;;5075468;28;20028;-78
2022/08/05 11:01:31;;;;;;;13.73;12.38;;;28.90;53.10;;;;;;5074581;27;20525;-79
2022/08/05 11:04:16;;;;;;;10.07;9.18;;;28.90;52.40;;;;;;5076860;28;20035;-79
2022/08/05 11:07:00;;;;;;;10.40;8.93;;;28.90;52.40;;;;;;5093001;28;20548;-79
2022/08/05 11:09:48;;;;;;;9.45;7.57;;;28.90;52.80;;;;;;5077196;27;20396;-79
2022/08/05 11:12:37;;;;;;;11.65;8.10;;;28.90;53.70;;;;;;5073437;28;21241;-79
2022/08/05 11:15:07;;;;;;;8.40;7.70;;;28.90;53.20;;;;;;5075930;27;20562;-79
2022/08/05 11:17:37;;;;;;;8.23;7.10;;;28.90;53.90;;;;;;5107721;27;20028;-78
2022/08/05 11:20:27;;;;;;;8.43;7.40;;;28.90;53.80;;;;;;5074724;28;20063;-80
2022/08/05 11:22:53;;;;;;;8.52;7.60;;;28.90;53.90;;;;;;5064625;28;20037;-79
2022/08/05 11:25:45;;;;;;;9.68;7.65;;;28.90;53.20;;;;;;5089812;28;20510;-81
2022/08/05 11:28:11;;;;;;;8.13;7.32;;;28.90;52.60;;;;;;5057715;28;20047;-80
2022/08/05 11:31:02;;;;;;;7.57;6.78;;;29.00;52.40;;;;;;5070069;28;20036;-78
2022/08/05 11:33:35;;;;;;;7.13;6.43;;;28.90;52.10;;;;;;5080060;28;20387;-84
2022/08/05 11:36:01;;;;;;;15.02;6.78;;;28.90;51.00;;;;;;5051759;27;20623;-79
2022/08/05 11:38:42;;;;;;;7.32;6.30;;;28.90;51.10;;;;;;5082621;28;20043;-83
2022/08/05 11:41:26;;;;;;;7.63;6.82;;;28.90;51.50;;;;;;5078493;28;20047;-78
2022/08/05 11:44:05;;;;;;;7.15;6.50;;;28.90;51.80;;;;;;5078219;28;20040;-78
2022/08/05 11:46:32;;;;;;;6.50;5.82;;;28.90;52.20;;;;;;5074254;28;20041;-79
2022/08/05 11:49:00;;;;;;;7.28;6.45;;;28.90;52.80;;;;;;5076876;28;20077;-79
2022/08/05 11:51:27;;;;;;;7.82;6.78;;;28.90;51.70;;;;;;5042905;28;20039;-79
2022/08/05 11:53:54;;;;;;;8.25;6.05;;;28.90;51.40;;;;;;5073652;27;20028;-79
2022/08/05 11:56:21;;;;;;;6.85;6.07;;;29.00;51.20;;;;;;5072733;28;20039;-79
2022/08/05 11:58:48;;;;;;;7.90;7.03;;;28.90;50.90;;;;;;5071775;28;20028;-79
2022/08/05 12:01:17;;;;;;;7.45;6.40;;;29.00;51.00;;;;;;5073574;27;20032;-84
2022/08/05 12:03:53;;;;;;;9.00;5.97;;;29.00;51.00;;;;;;5071643;28;20047;-80
2022/08/05 12:06:25;;;;;;;8.52;6.32;;;29.00;51.30;;;;;;5092694;28;20093;-80
2022/08/05 12:08:54;;;;;;;7.43;6.65;;;29.00;51.60;;;;;;5075976;27;20065;-82
2022/08/05 12:11:22;;;;;;;8.40;6.70;;;29.00;55.00;;;;;;5089683;28;20037;-88
2022/08/05 12:13:58;;;;;;;9.13;7.10;;;28.90;56.50;;;;;;5071415;28;20032;-87
2022/08/05 12:16:28;;;;;;;8.10;6.88;;;28.80;55.50;;;;;;5062133;28;20045;-87
2022/08/05 12:18:54;;;;;;;7.78;6.78;;;28.80;56.00;;;;;;5068084;28;20067;-88
2022/08/05 12:21:29;;;;;;;10.38;6.60;;;28.80;55.40;;;;;;5102641;28;20047;-85
2022/08/05 12:24:10;;;;;;;8.35;6.15;;;28.80;54.10;;;;;;5102033;28;20457;-84
2022/08/05 12:26:48;;;;;;;6.72;6.13;;;28.80;53.40;;;;;;5074365;28;20028;-86
2022/08/05 12:29:25;;;;;;;6.72;6.13;;;28.70;54.90;;;;;;5055728;28;20052;-88
2022/08/05 12:31:56;;;;;;;7.07;6.32;;;28.70;54.70;;;;;;5068779;28;20033;-87
2022/08/05 12:34:27;;;;;;;8.90;6.60;;;28.70;54.40;;;;;;5041003;28;20032;-88
2022/08/05 12:36:55;;;;;;;6.75;6.10;;;28.70;55.60;;;;;;5073371;28;20037;-86
2022/08/05 12:39:25;;;;;;;7.38;6.68;;;28.60;56.60;;;;;;5053762;28;20048;-89
2022/08/05 12:41:59;;;;;;;9.68;6.45;;;28.60;58.20;;;;;;5066511;28;20555;-91
2022/08/05 12:44:25;;;;;;;10.40;7.03;;;28.50;57.80;;;;;;5093154;28;20088;-87
2022/08/05 12:46:54;;;;;;;8.73;6.65;;;28.50;56.20;;;;;;5060746;28;20029;-85
2022/08/05 12:49:21;;;;;;;7.07;6.38;;;28.50;56.60;;;;;;5059130;28;20182;-87